This is the latest recevied weather packets stored in our database for station/object WS2Z. If no packets are shown the sender has not sent any weather packets the latest 10 day(s).
| Time | Temp. | Humidity | Pressure | Rain* | Wind** | Luminosity | Snow |
|---|---|---|---|---|---|---|---|
| 1777931133 | 26.67° C | 76% | 1013.4 hPa | 0 mm | - | 342 W/m² | - |
| 1777930830 | 27.22° C | 76% | 1013.1 hPa | 0 mm | - | 145 W/m² | - |
| 1777930526 | 27.22° C | 75% | 1013.2 hPa | 0 mm | - | 400 W/m² | - |
| 1777930224 | 26.67° C | 75% | 1013.4 hPa | 0 mm | - | 402 W/m² | - |
| 1777929919 | 25.56° C | 77% | 1013.5 hPa | 0 mm | - | 426 W/m² | - |
| 1777929617 | 25.56° C | 78% | 1013.4 hPa | 0 mm | - | 167 W/m² | - |
| 1777929314 | 26.11° C | 77% | 1013.4 hPa | 0 mm | - | 119 W/m² | - |
| 1777929011 | 26.67° C | 75% | 1013.7 hPa | 0 mm | - | 158 W/m² | - |
| 1777928708 | 27.22° C | 73% | 1013.6 hPa | 0 mm | - | 224 W/m² | - |
| 1777928405 | 28.33° C | 70% | 1013.4 hPa | 0 mm | - | 543 W/m² | - |
| 1777928102 | 28.89° C | 66% | 1013.3 hPa | 0 mm | - | 570 W/m² | - |
| 1777927800 | 28.33° C | 64% | 1013.1 hPa | 0 mm | - | 586 W/m² | - |
| 1777927498 | 28.33° C | 65% | 1013.4 hPa | 0 mm | - | 272 W/m² | - |
| 1777927197 | 28.33° C | 65% | 1013.3 hPa | 0 mm | - | 172 W/m² | - |
| 1777926895 | 28.33° C | 64% | 1013.3 hPa | 0 mm | - | 151 W/m² | - |
| 1777926590 | 29.44° C | 62% | 1013.4 hPa | 0 mm | - | 184 W/m² | - |
| 1777926287 | 28.89° C | 65% | 1013.2 hPa | 0 mm | - | 652 W/m² | - |
| 1777925984 | 28.89° C | 65% | 1013.2 hPa | 0 mm | - | 637 W/m² | - |
| 1777925681 | 30° C | 62% | 1013.4 hPa | 0 mm | - | 465 W/m² | - |
| 1777925379 | 29.44° C | 61% | 1013.4 hPa | 0 mm | - | 662 W/m² | - |
| 1777925075 | 29.44° C | 63% | 1013.5 hPa | 0 mm | - | 656 W/m² | - |
| 1777924772 | 29.44° C | 63% | 1013.5 hPa | 0 mm | - | 658 W/m² | - |
| 1777924468 | 30° C | 62% | 1013.4 hPa | 0 mm | - | 699 W/m² | - |
| 1777924164 | 30° C | 60% | 1013.5 hPa | 0 mm | - | 702 W/m² | - |
| 1777923860 | 30° C | 58% | 1013.4 hPa | 0 mm | - | 717 W/m² | - |
* Rain latest hour (hover to see other rain measurements)
** Current wind speed in m/s (hover to see current wind gust speed)